sensor_id;sensor_type;location;lat;lon;timestamp;temperature;humidity
16392;DHT22;8305;-33.882;151.134;2023-03-13T00:01:54;23.40;99.90
16392;DHT22;8305;-33.882;151.134;2023-03-13T00:04:27;23.30;99.90
16392;DHT22;8305;-33.882;151.134;2023-03-13T00:06:58;23.30;99.90
16392;DHT22;8305;-33.882;151.134;2023-03-13T00:09:30;23.30;99.90
16392;DHT22;8305;-33.882;151.134;2023-03-13T00:12:01;23.30;99.90
16392;DHT22;8305;-33.882;151.134;2023-03-13T00:14:32;23.20;99.90
16392;DHT22;8305;-33.882;151.134;2023-03-13T00:17:03;23.10;99.90
16392;DHT22;8305;-33.882;151.134;2023-03-13T00:19:36;23.10;99.90
16392;DHT22;8305;-33.882;151.134;2023-03-13T00:22:07;23.20;99.90
16392;DHT22;8305;-33.882;151.134;2023-03-13T00:24:38;23.30;99.90
16392;DHT22;8305;-33.882;151.134;2023-03-13T00:27:09;23.30;99.90
16392;DHT22;8305;-33.882;151.134;2023-03-13T00:29:40;23.40;99.90
16392;DHT22;8305;-33.882;151.134;2023-03-13T00:32:11;23.50;99.90
16392;DHT22;8305;-33.882;151.134;2023-03-13T00:34:44;23.50;99.90
16392;DHT22;8305;-33.882;151.134;2023-03-13T00:37:15;23.50;99.90
16392;DHT22;8305;-33.882;151.134;2023-03-13T00:39:46;23.70;99.90
16392;DHT22;8305;-33.882;151.134;2023-03-13T00:42:22;23.90;99.90
16392;DHT22;8305;-33.882;151.134;2023-03-13T00:44:53;24.00;99.90
16392;DHT22;8305;-33.882;151.134;2023-03-13T00:47:24;24.00;99.90
16392;DHT22;8305;-33.882;151.134;2023-03-13T00:49:57;23.80;99.90
16392;DHT22;8305;-33.882;151.134;2023-03-13T00:52:28;23.70;99.90
16392;DHT22;8305;-33.882;151.134;2023-03-13T00:54:59;23.70;99.90
16392;DHT22;8305;-33.882;151.134;2023-03-13T00:57:31;23.80;99.90
16392;DHT22;8305;-33.882;151.134;2023-03-13T01:00:04;23.90;99.90
16392;DHT22;8305;-33.882;151.134;2023-03-13T01:02:41;23.80;99.90
16392;DHT22;8305;-33.882;151.134;2023-03-13T01:05:14;23.70;99.90
16392;DHT22;8305;-33.882;151.134;2023-03-13T01:07:45;23.60;99.90
16392;DHT22;8305;-33.882;151.134;2023-03-13T01:10:18;23.70;99.90
16392;DHT22;8305;-33.882;151.134;2023-03-13T01:12:49;23.60;99.90
16392;DHT22;8305;-33.882;151.134;2023-03-13T01:15:20;23.60;99.90
16392;DHT22;8305;-33.882;151.134;2023-03-13T01:17:51;23.60;99.90
16392;DHT22;8305;-33.882;151.134;2023-03-13T01:20:24;23.80;99.90
16392;DHT22;8305;-33.882;151.134;2023-03-13T01:22:55;23.90;99.90
16392;DHT22;8305;-33.882;151.134;2023-03-13T01:25:26;24.00;99.90
16392;DHT22;8305;-33.882;151.134;2023-03-13T01:28:01;24.00;99.90
16392;DHT22;8305;-33.882;151.134;2023-03-13T01:30:32;24.30;99.90
16392;DHT22;8305;-33.882;151.134;2023-03-13T01:33:04;24.70;99.90
16392;DHT22;8305;-33.882;151.134;2023-03-13T01:35:37;25.00;99.90
16392;DHT22;8305;-33.882;151.134;2023-03-13T01:38:08;25.00;99.90
16392;DHT22;8305;-33.882;151.134;2023-03-13T01:40:41;24.90;99.90
16392;DHT22;8305;-33.882;151.134;2023-03-13T01:43:21;25.00;99.90
16392;DHT22;8305;-33.882;151.134;2023-03-13T01:45:58;25.30;99.90
16392;DHT22;8305;-33.882;151.134;2023-03-13T01:48:37;25.40;99.90
16392;DHT22;8305;-33.882;151.134;2023-03-13T01:51:15;25.20;99.90
16392;DHT22;8305;-33.882;151.134;2023-03-13T01:53:49;24.80;99.90
16392;DHT22;8305;-33.882;151.134;2023-03-13T01:56:24;24.60;99.90
16392;DHT22;8305;-33.882;151.134;2023-03-13T01:58:58;24.50;99.90
16392;DHT22;8305;-33.882;151.134;2023-03-13T02:01:30;24.30;99.90
16392;DHT22;8305;-33.882;151.134;2023-03-13T02:04:01;24.20;99.90
16392;DHT22;8305;-33.882;151.134;2023-03-13T02:06:37;24.00;99.90
16392;DHT22;8305;-33.882;151.134;2023-03-13T02:09:10;24.00;99.90
16392;DHT22;8305;-33.882;151.134;2023-03-13T02:11:47;24.00;99.90
16392;DHT22;8305;-33.882;151.134;2023-03-13T02:14:21;24.00;99.90
16392;DHT22;8305;-33.882;151.134;2023-03-13T02:16:54;24.00;99.90
16392;DHT22;8305;-33.882;151.134;2023-03-13T02:19:29;23.90;99.90
16392;DHT22;8305;-33.882;151.134;2023-03-13T02:22:10;23.80;99.90
16392;DHT22;8305;-33.882;151.134;2023-03-13T02:24:48;23.90;99.90
16392;DHT22;8305;-33.882;151.134;2023-03-13T02:27:24;23.90;99.90
16392;DHT22;8305;-33.882;151.134;2023-03-13T02:29:55;23.90;99.90
16392;DHT22;8305;-33.882;151.134;2023-03-13T02:32:27;23.90;99.90
16392;DHT22;8305;-33.882;151.134;2023-03-13T02:35:03;23.90;99.90
16392;DHT22;8305;-33.882;151.134;2023-03-13T02:37:36;23.80;99.90
16392;DHT22;8305;-33.882;151.134;2023-03-13T02:40:10;23.70;99.90
16392;DHT22;8305;-33.882;151.134;2023-03-13T02:42:45;23.70;99.90
16392;DHT22;8305;-33.882;151.134;2023-03-13T02:45:17;23.70;99.90
16392;DHT22;8305;-33.882;151.134;2023-03-13T02:47:48;23.70;99.90
16392;DHT22;8305;-33.882;151.134;2023-03-13T02:50:20;23.70;99.90
16392;DHT22;8305;-33.882;151.134;2023-03-13T02:52:53;23.70;99.90
16392;DHT22;8305;-33.882;151.134;2023-03-13T02:55:27;23.70;99.90
16392;DHT22;8305;-33.882;151.134;2023-03-13T02:58:01;23.80;99.90
16392;DHT22;8305;-33.882;151.134;2023-03-13T03:00:32;23.80;99.90
16392;DHT22;8305;-33.882;151.134;2023-03-13T03:03:03;23.80;99.90
16392;DHT22;8305;-33.882;151.134;2023-03-13T03:05:34;23.70;99.90
16392;DHT22;8305;-33.882;151.134;2023-03-13T03:08:05;23.70;99.90
16392;DHT22;8305;-33.882;151.134;2023-03-13T03:10:37;23.70;99.90
16392;DHT22;8305;-33.882;151.134;2023-03-13T03:13:10;23.70;99.90
16392;DHT22;8305;-33.882;151.134;2023-03-13T03:15:41;23.70;99.90
16392;DHT22;8305;-33.882;151.134;2023-03-13T03:18:12;23.70;99.90
16392;DHT22;8305;-33.882;151.134;2023-03-13T03:20:43;23.70;99.90
16392;DHT22;8305;-33.882;151.134;2023-03-13T03:23:14;23.80;99.90
16392;DHT22;8305;-33.882;151.134;2023-03-13T03:25:45;23.80;99.90
16392;DHT22;8305;-33.882;151.134;2023-03-13T03:28:18;23.80;99.90
16392;DHT22;8305;-33.882;151.134;2023-03-13T03:30:49;23.80;99.90
16392;DHT22;8305;-33.882;151.134;2023-03-13T03:33:21;23.80;99.90
16392;DHT22;8305;-33.882;151.134;2023-03-13T03:35:57;23.80;99.90
16392;DHT22;8305;-33.882;151.134;2023-03-13T03:38:28;23.70;99.90
16392;DHT22;8305;-33.882;151.134;2023-03-13T03:41:00;23.60;99.90
16392;DHT22;8305;-33.882;151.134;2023-03-13T03:43:33;23.50;99.90
16392;DHT22;8305;-33.882;151.134;2023-03-13T03:46:04;23.30;99.90
16392;DHT22;8305;-33.882;151.134;2023-03-13T03:48:35;23.20;99.90
16392;DHT22;8305;-33.882;151.134;2023-03-13T03:51:07;23.10;99.90
16392;DHT22;8305;-33.882;151.134;2023-03-13T03:53:38;23.10;99.90
16392;DHT22;8305;-33.882;151.134;2023-03-13T03:56:09;23.10;99.90
16392;DHT22;8305;-33.882;151.134;2023-03-13T03:58:42;23.00;99.90
16392;DHT22;8305;-33.882;151.134;2023-03-13T04:01:13;23.10;99.90
16392;DHT22;8305;-33.882;151.134;2023-03-13T04:03:44;23.10;99.90
16392;DHT22;8305;-33.882;151.134;2023-03-13T04:06:15;23.10;99.90
16392;DHT22;8305;-33.882;151.134;2023-03-13T04:08:46;23.10;99.90
16392;DHT22;8305;-33.882;151.134;2023-03-13T04:11:17;23.20;99.90
16392;DHT22;8305;-33.882;151.134;2023-03-13T04:13:50;23.20;99.90
16392;DHT22;8305;-33.882;151.134;2023-03-13T04:16:22;23.20;99.90
16392;DHT22;8305;-33.882;151.134;2023-03-13T04:18:53;23.30;99.90
16392;DHT22;8305;-33.882;151.134;2023-03-13T04:21:24;23.40;99.90
16392;DHT22;8305;-33.882;151.134;2023-03-13T04:23:55;23.40;99.90
16392;DHT22;8305;-33.882;151.134;2023-03-13T04:26:26;23.50;99.90
16392;DHT22;8305;-33.882;151.134;2023-03-13T04:28:59;23.40;99.90
16392;DHT22;8305;-33.882;151.134;2023-03-13T04:31:30;23.40;99.90
16392;DHT22;8305;-33.882;151.134;2023-03-13T04:34:01;23.40;99.90
16392;DHT22;8305;-33.882;151.134;2023-03-13T04:36:32;23.30;99.90
16392;DHT22;8305;-33.882;151.134;2023-03-13T04:39:03;23.20;99.90
16392;DHT22;8305;-33.882;151.134;2023-03-13T04:41:34;23.30;99.90
16392;DHT22;8305;-33.882;151.134;2023-03-13T04:44:08;23.30;99.90
16392;DHT22;8305;-33.882;151.134;2023-03-13T04:46:39;23.30;99.90
16392;DHT22;8305;-33.882;151.134;2023-03-13T04:49:10;23.40;99.90
16392;DHT22;8305;-33.882;151.134;2023-03-13T04:51:41;23.60;99.90
16392;DHT22;8305;-33.882;151.134;2023-03-13T04:54:13;23.60;99.90
16392;DHT22;8305;-33.882;151.134;2023-03-13T04:56:44;23.70;99.90
16392;DHT22;8305;-33.882;151.134;2023-03-13T04:59:17;23.60;99.90
16392;DHT22;8305;-33.882;151.134;2023-03-13T05:01:49;23.70;99.90
16392;DHT22;8305;-33.882;151.134;2023-03-13T05:04:20;23.70;99.90
16392;DHT22;8305;-33.882;151.134;2023-03-13T05:06:51;23.70;99.90
16392;DHT22;8305;-33.882;151.134;2023-03-13T05:09:22;23.70;99.90
16392;DHT22;8305;-33.882;151.134;2023-03-13T05:11:53;23.80;99.90
16392;DHT22;8305;-33.882;151.134;2023-03-13T05:14:26;23.70;99.90
16392;DHT22;8305;-33.882;151.134;2023-03-13T05:16:57;23.80;99.90
16392;DHT22;8305;-33.882;151.134;2023-03-13T05:19:28;23.80;99.90
16392;DHT22;8305;-33.882;151.134;2023-03-13T05:21:59;23.90;99.90
16392;DHT22;8305;-33.882;151.134;2023-03-13T05:24:30;23.90;99.90
16392;DHT22;8305;-33.882;151.134;2023-03-13T05:27:02;23.80;99.90
16392;DHT22;8305;-33.882;151.134;2023-03-13T05:29:35;23.80;99.90
16392;DHT22;8305;-33.882;151.134;2023-03-13T05:32:06;23.70;99.90
16392;DHT22;8305;-33.882;151.134;2023-03-13T05:34:37;23.60;99.90
16392;DHT22;8305;-33.882;151.134;2023-03-13T05:37:08;23.50;99.90
16392;DHT22;8305;-33.882;151.134;2023-03-13T05:39:39;23.50;99.90
16392;DHT22;8305;-33.882;151.134;2023-03-13T05:42:10;23.40;99.90
16392;DHT22;8305;-33.882;151.134;2023-03-13T05:44:43;23.50;99.90
16392;DHT22;8305;-33.882;151.134;2023-03-13T05:47:14;23.40;99.90
16392;DHT22;8305;-33.882;151.134;2023-03-13T05:49:45;23.40;99.90
16392;DHT22;8305;-33.882;151.134;2023-03-13T05:52:16;23.30;99.90
16392;DHT22;8305;-33.882;151.134;2023-03-13T05:54:48;23.30;99.90
16392;DHT22;8305;-33.882;151.134;2023-03-13T05:57:19;23.30;99.90
16392;DHT22;8305;-33.882;151.134;2023-03-13T05:59:52;23.30;99.90
16392;DHT22;8305;-33.882;151.134;2023-03-13T06:02:23;23.30;99.90
16392;DHT22;8305;-33.882;151.134;2023-03-13T06:04:54;23.40;99.90
16392;DHT22;8305;-33.882;151.134;2023-03-13T06:07:25;23.40;99.90
16392;DHT22;8305;-33.882;151.134;2023-03-13T06:09:56;23.50;99.90
16392;DHT22;8305;-33.882;151.134;2023-03-13T06:12:27;23.50;99.90
16392;DHT22;8305;-33.882;151.134;2023-03-13T06:15:00;23.60;99.90
16392;DHT22;8305;-33.882;151.134;2023-03-13T06:17:31;23.60;99.90
16392;DHT22;8305;-33.882;151.134;2023-03-13T06:20:02;23.60;99.90
16392;DHT22;8305;-33.882;151.134;2023-03-13T06:22:34;23.60;99.90
16392;DHT22;8305;-33.882;151.134;2023-03-13T06:25:05;23.60;99.90
16392;DHT22;8305;-33.882;151.134;2023-03-13T06:27:36;23.50;99.90
16392;DHT22;8305;-33.882;151.134;2023-03-13T06:30:10;23.40;99.90
16392;DHT22;8305;-33.882;151.134;2023-03-13T06:32:42;23.40;99.90
16392;DHT22;8305;-33.882;151.134;2023-03-13T06:35:14;23.30;99.90
16392;DHT22;8305;-33.882;151.134;2023-03-13T06:37:45;23.20;99.90
16392;DHT22;8305;-33.882;151.134;2023-03-13T06:40:16;23.20;99.90
16392;DHT22;8305;-33.882;151.134;2023-03-13T06:42:47;23.10;99.90
16392;DHT22;8305;-33.882;151.134;2023-03-13T06:45:21;23.10;99.90
16392;DHT22;8305;-33.882;151.134;2023-03-13T06:47:52;23.00;99.90
16392;DHT22;8305;-33.882;151.134;2023-03-13T06:50:23;23.00;99.90
16392;DHT22;8305;-33.882;151.134;2023-03-13T06:52:54;23.00;99.90
16392;DHT22;8305;-33.882;151.134;2023-03-13T06:55:25;22.90;99.90
16392;DHT22;8305;-33.882;151.134;2023-03-13T06:57:56;22.90;99.90
16392;DHT22;8305;-33.882;151.134;2023-03-13T07:00:29;22.90;99.90
16392;DHT22;8305;-33.882;151.134;2023-03-13T07:03:01;22.90;99.90
16392;DHT22;8305;-33.882;151.134;2023-03-13T07:05:32;22.90;99.90
16392;DHT22;8305;-33.882;151.134;2023-03-13T07:08:03;22.80;99.90
16392;DHT22;8305;-33.882;151.134;2023-03-13T07:10:34;22.80;99.90
16392;DHT22;8305;-33.882;151.134;2023-03-13T07:13:05;22.80;99.90
16392;DHT22;8305;-33.882;151.134;2023-03-13T07:15:38;22.80;99.90
16392;DHT22;8305;-33.882;151.134;2023-03-13T07:18:09;22.80;99.90
16392;DHT22;8305;-33.882;151.134;2023-03-13T07:20:41;22.80;99.90
16392;DHT22;8305;-33.882;151.134;2023-03-13T07:23:12;22.80;99.90
16392;DHT22;8305;-33.882;151.134;2023-03-13T07:25:43;22.80;99.90
16392;DHT22;8305;-33.882;151.134;2023-03-13T07:28:14;22.80;99.90
16392;DHT22;8305;-33.882;151.134;2023-03-13T07:30:48;22.80;99.90
16392;DHT22;8305;-33.882;151.134;2023-03-13T07:33:19;22.70;99.90
16392;DHT22;8305;-33.882;151.134;2023-03-13T07:35:51;22.70;99.90
16392;DHT22;8305;-33.882;151.134;2023-03-13T07:38:22;22.70;99.90
16392;DHT22;8305;-33.882;151.134;2023-03-13T07:40:54;22.60;99.90
16392;DHT22;8305;-33.882;151.134;2023-03-13T07:43:26;22.60;99.90
16392;DHT22;8305;-33.882;151.134;2023-03-13T07:46:01;22.50;99.90
16392;DHT22;8305;-33.882;151.134;2023-03-13T07:48:34;22.50;99.90
16392;DHT22;8305;-33.882;151.134;2023-03-13T07:51:05;22.50;99.90
16392;DHT22;8305;-33.882;151.134;2023-03-13T07:53:37;22.40;99.90
16392;DHT22;8305;-33.882;151.134;2023-03-13T07:56:11;22.40;99.90
16392;DHT22;8305;-33.882;151.134;2023-03-13T07:58:43;22.40;99.90
16392;DHT22;8305;-33.882;151.134;2023-03-13T08:01:17;22.40;99.90
16392;DHT22;8305;-33.882;151.134;2023-03-13T08:03:48;22.40;99.90
16392;DHT22;8305;-33.882;151.134;2023-03-13T08:06:20;22.40;99.90
16392;DHT22;8305;-33.882;151.134;2023-03-13T08:08:55;22.40;99.90
16392;DHT22;8305;-33.882;151.134;2023-03-13T08:11:27;22.30;99.90
16392;DHT22;8305;-33.882;151.134;2023-03-13T08:13:58;22.30;99.90
16392;DHT22;8305;-33.882;151.134;2023-03-13T08:16:33;22.30;99.90
16392;DHT22;8305;-33.882;151.134;2023-03-13T08:19:04;22.30;99.90
16392;DHT22;8305;-33.882;151.134;2023-03-13T08:21:36;22.30;99.90
16392;DHT22;8305;-33.882;151.134;2023-03-13T08:24:09;22.30;99.90
16392;DHT22;8305;-33.882;151.134;2023-03-13T08:26:41;22.30;99.90
16392;DHT22;8305;-33.882;151.134;2023-03-13T08:29:13;22.30;99.90
16392;DHT22;8305;-33.882;151.134;2023-03-13T08:31:47;22.30;99.90
16392;DHT22;8305;-33.882;151.134;2023-03-13T08:34:19;22.30;99.90
16392;DHT22;8305;-33.882;151.134;2023-03-13T08:36:50;22.30;99.90
16392;DHT22;8305;-33.882;151.134;2023-03-13T08:39:21;22.30;99.90
16392;DHT22;8305;-33.882;151.134;2023-03-13T08:41:56;22.30;99.90
16392;DHT22;8305;-33.882;151.134;2023-03-13T08:44:27;22.30;99.90
16392;DHT22;8305;-33.882;151.134;2023-03-13T08:47:00;22.30;99.90
16392;DHT22;8305;-33.882;151.134;2023-03-13T08:49:31;22.30;99.90
16392;DHT22;8305;-33.882;151.134;2023-03-13T08:52:04;22.30;99.90
16392;DHT22;8305;-33.882;151.134;2023-03-13T08:54:35;22.20;99.90
16392;DHT22;8305;-33.882;151.134;2023-03-13T08:57:06;22.00;99.90
16392;DHT22;8305;-33.882;151.134;2023-03-13T08:59:37;21.90;99.90
16392;DHT22;8305;-33.882;151.134;2023-03-13T09:02:11;21.80;99.90
16392;DHT22;8305;-33.882;151.134;2023-03-13T09:04:47;21.70;99.90
16392;DHT22;8305;-33.882;151.134;2023-03-13T09:07:18;21.70;99.90
16392;DHT22;8305;-33.882;151.134;2023-03-13T09:09:49;21.60;99.90
16392;DHT22;8305;-33.882;151.134;2023-03-13T09:12:20;21.60;99.90
16392;DHT22;8305;-33.882;151.134;2023-03-13T09:14:51;21.60;99.90
16392;DHT22;8305;-33.882;151.134;2023-03-13T09:17:24;21.60;99.90
16392;DHT22;8305;-33.882;151.134;2023-03-13T09:19:55;21.60;99.90
16392;DHT22;8305;-33.882;151.134;2023-03-13T09:22:26;21.60;99.90
16392;DHT22;8305;-33.882;151.134;2023-03-13T09:24:57;21.60;99.90
16392;DHT22;8305;-33.882;151.134;2023-03-13T09:27:28;21.60;99.90
16392;DHT22;8305;-33.882;151.134;2023-03-13T09:30:00;21.70;99.90
16392;DHT22;8305;-33.882;151.134;2023-03-13T09:32:33;21.80;99.90
16392;DHT22;8305;-33.882;151.134;2023-03-13T09:35:04;21.80;99.90
16392;DHT22;8305;-33.882;151.134;2023-03-13T09:37:35;21.80;99.90
16392;DHT22;8305;-33.882;151.134;2023-03-13T09:40:08;21.80;99.90
16392;DHT22;8305;-33.882;151.134;2023-03-13T09:42:46;21.90;99.90
16392;DHT22;8305;-33.882;151.134;2023-03-13T09:45:21;21.80;99.90
16392;DHT22;8305;-33.882;151.134;2023-03-13T09:48:00;21.90;99.90
16392;DHT22;8305;-33.882;151.134;2023-03-13T09:50:33;21.90;99.90
16392;DHT22;8305;-33.882;151.134;2023-03-13T09:53:12;21.90;99.90
16392;DHT22;8305;-33.882;151.134;2023-03-13T09:55:45;21.90;99.90
16392;DHT22;8305;-33.882;151.134;2023-03-13T09:58:18;21.90;99.90
16392;DHT22;8305;-33.882;151.134;2023-03-13T10:00:55;21.90;99.90
16392;DHT22;8305;-33.882;151.134;2023-03-13T10:03:33;21.90;99.90
16392;DHT22;8305;-33.882;151.134;2023-03-13T10:06:10;21.90;99.90
16392;DHT22;8305;-33.882;151.134;2023-03-13T10:08:44;21.80;99.90
16392;DHT22;8305;-33.882;151.134;2023-03-13T10:11:26;21.80;99.90
16392;DHT22;8305;-33.882;151.134;2023-03-13T10:14:01;21.80;99.90
16392;DHT22;8305;-33.882;151.134;2023-03-13T10:16:40;21.80;99.90
16392;DHT22;8305;-33.882;151.134;2023-03-13T10:19:16;21.80;99.90
16392;DHT22;8305;-33.882;151.134;2023-03-13T10:21:49;21.80;99.90
16392;DHT22;8305;-33.882;151.134;2023-03-13T10:24:29;21.80;99.90
16392;DHT22;8305;-33.882;151.134;2023-03-13T10:27:02;21.80;99.90
16392;DHT22;8305;-33.882;151.134;2023-03-13T10:29:38;21.80;99.90
16392;DHT22;8305;-33.882;151.134;2023-03-13T10:32:12;21.80;99.90
16392;DHT22;8305;-33.882;151.134;2023-03-13T10:34:51;21.70;99.90
16392;DHT22;8305;-33.882;151.134;2023-03-13T10:37:24;21.70;99.90
16392;DHT22;8305;-33.882;151.134;2023-03-13T10:40:12;21.70;99.90
16392;DHT22;8305;-33.882;151.134;2023-03-13T10:42:44;21.70;99.90
16392;DHT22;8305;-33.882;151.134;2023-03-13T10:45:17;21.70;99.90
16392;DHT22;8305;-33.882;151.134;2023-03-13T10:47:55;21.70;99.90
16392;DHT22;8305;-33.882;151.134;2023-03-13T10:50:32;21.70;99.90
16392;DHT22;8305;-33.882;151.134;2023-03-13T10:53:22;21.60;99.90
16392;DHT22;8305;-33.882;151.134;2023-03-13T10:55:56;21.60;99.90
16392;DHT22;8305;-33.882;151.134;2023-03-13T10:58:34;21.60;99.90
16392;DHT22;8305;-33.882;151.134;2023-03-13T11:01:17;21.60;99.90
16392;DHT22;8305;-33.882;151.134;2023-03-13T11:03:49;21.60;99.90
16392;DHT22;8305;-33.882;151.134;2023-03-13T11:06:28;21.50;99.90
16392;DHT22;8305;-33.882;151.134;2023-03-13T11:09:04;21.60;99.90
16392;DHT22;8305;-33.882;151.134;2023-03-13T11:11:45;21.50;99.90
16392;DHT22;8305;-33.882;151.134;2023-03-13T11:14:18;21.50;99.90
16392;DHT22;8305;-33.882;151.134;2023-03-13T11:16:50;21.50;99.90
16392;DHT22;8305;-33.882;151.134;2023-03-13T11:19:48;21.50;99.90
16392;DHT22;8305;-33.882;151.134;2023-03-13T11:22:33;21.50;99.90
16392;DHT22;8305;-33.882;151.134;2023-03-13T11:25:18;21.50;99.90
16392;DHT22;8305;-33.882;151.134;2023-03-13T11:31:07;21.50;99.90
16392;DHT22;8305;-33.882;151.134;2023-03-13T11:33:44;21.40;99.90
16392;DHT22;8305;-33.882;151.134;2023-03-13T11:36:22;21.50;99.90
16392;DHT22;8305;-33.882;151.134;2023-03-13T11:39:04;21.40;99.90
16392;DHT22;8305;-33.882;151.134;2023-03-13T11:41:46;21.40;99.90
16392;DHT22;8305;-33.882;151.134;2023-03-13T11:44:27;21.40;99.90
16392;DHT22;8305;-33.882;151.134;2023-03-13T11:47:32;21.40;99.90
16392;DHT22;8305;-33.882;151.134;2023-03-13T11:50:22;21.40;99.90
16392;DHT22;8305;-33.882;151.134;2023-03-13T11:53:07;21.40;99.90
16392;DHT22;8305;-33.882;151.134;2023-03-13T11:55:58;21.40;99.90
16392;DHT22;8305;-33.882;151.134;2023-03-13T11:59:01;21.30;99.90
16392;DHT22;8305;-33.882;151.134;2023-03-13T12:01:37;21.40;99.90
16392;DHT22;8305;-33.882;151.134;2023-03-13T12:04:14;21.40;99.90
16392;DHT22;8305;-33.882;151.134;2023-03-13T12:06:51;21.40;99.90
16392;DHT22;8305;-33.882;151.134;2023-03-13T12:09:27;21.40;99.90
16392;DHT22;8305;-33.882;151.134;2023-03-13T12:12:04;21.40;99.90
16392;DHT22;8305;-33.882;151.134;2023-03-13T12:14:41;21.40;99.90
16392;DHT22;8305;-33.882;151.134;2023-03-13T12:17:16;21.40;99.90
16392;DHT22;8305;-33.882;151.134;2023-03-13T12:19:57;21.40;99.90
16392;DHT22;8305;-33.882;151.134;2023-03-13T12:22:34;21.40;99.90
16392;DHT22;8305;-33.882;151.134;2023-03-13T12:25:13;21.40;99.90
16392;DHT22;8305;-33.882;151.134;2023-03-13T12:27:51;21.40;99.90
16392;DHT22;8305;-33.882;151.134;2023-03-13T12:30:30;21.30;99.90
16392;DHT22;8305;-33.882;151.134;2023-03-13T12:33:11;21.40;99.90
16392;DHT22;8305;-33.882;151.134;2023-03-13T12:35:46;21.30;99.90
16392;DHT22;8305;-33.882;151.134;2023-03-13T12:38:23;21.30;99.90
16392;DHT22;8305;-33.882;151.134;2023-03-13T12:41:03;21.30;99.90
16392;DHT22;8305;-33.882;151.134;2023-03-13T12:43:40;21.30;99.90
16392;DHT22;8305;-33.882;151.134;2023-03-13T12:55:33;21.30;99.90
16392;DHT22;8305;-33.882;151.134;2023-03-13T12:58:43;21.30;99.90
16392;DHT22;8305;-33.882;151.134;2023-03-13T13:01:20;21.30;99.90
16392;DHT22;8305;-33.882;151.134;2023-03-13T13:03:57;21.40;99.90
16392;DHT22;8305;-33.882;151.134;2023-03-13T13:09:21;21.30;99.90
16392;DHT22;8305;-33.882;151.134;2023-03-13T13:11:54;21.30;99.90
16392;DHT22;8305;-33.882;151.134;2023-03-13T13:14:58;21.30;99.90
16392;DHT22;8305;-33.882;151.134;2023-03-13T13:17:53;21.30;99.90
16392;DHT22;8305;-33.882;151.134;2023-03-13T13:20:35;21.30;99.90
16392;DHT22;8305;-33.882;151.134;2023-03-13T13:23:25;21.30;99.90
16392;DHT22;8305;-33.882;151.134;2023-03-13T13:32:41;21.30;99.90
16392;DHT22;8305;-33.882;151.134;2023-03-13T13:35:25;21.40;99.90
16392;DHT22;8305;-33.882;151.134;2023-03-13T13:38:30;21.40;99.90
16392;DHT22;8305;-33.882;151.134;2023-03-13T13:41:25;21.40;99.90
16392;DHT22;8305;-33.882;151.134;2023-03-13T13:44:22;21.40;99.90
16392;DHT22;8305;-33.882;151.134;2023-03-13T13:46:55;21.40;99.90
16392;DHT22;8305;-33.882;151.134;2023-03-13T13:49:50;21.40;99.90
16392;DHT22;8305;-33.882;151.134;2023-03-13T13:52:39;21.40;99.90
16392;DHT22;8305;-33.882;151.134;2023-03-13T13:55:32;21.40;99.90
16392;DHT22;8305;-33.882;151.134;2023-03-13T13:58:04;21.40;99.90
16392;DHT22;8305;-33.882;151.134;2023-03-13T14:00:39;21.30;99.90
16392;DHT22;8305;-33.882;151.134;2023-03-13T14:03:21;21.30;99.90
16392;DHT22;8305;-33.882;151.134;2023-03-13T14:05:56;21.30;99.90
16392;DHT22;8305;-33.882;151.134;2023-03-13T14:08:30;21.30;99.90
16392;DHT22;8305;-33.882;151.134;2023-03-13T14:11:17;21.30;99.90
16392;DHT22;8305;-33.882;151.134;2023-03-13T14:14:08;21.30;99.90
16392;DHT22;8305;-33.882;151.134;2023-03-13T14:16:42;21.30;99.90
16392;DHT22;8305;-33.882;151.134;2023-03-13T14:19:25;21.30;99.90
16392;DHT22;8305;-33.882;151.134;2023-03-13T14:22:04;21.30;99.90
16392;DHT22;8305;-33.882;151.134;2023-03-13T14:24:35;21.30;99.90
16392;DHT22;8305;-33.882;151.134;2023-03-13T14:27:15;21.30;99.90
16392;DHT22;8305;-33.882;151.134;2023-03-13T14:30:01;21.30;99.90
16392;DHT22;8305;-33.882;151.134;2023-03-13T14:32:32;21.30;99.90
16392;DHT22;8305;-33.882;151.134;2023-03-13T14:35:04;21.30;99.90
16392;DHT22;8305;-33.882;151.134;2023-03-13T14:37:40;21.30;99.90
16392;DHT22;8305;-33.882;151.134;2023-03-13T14:40:22;21.30;99.90
16392;DHT22;8305;-33.882;151.134;2023-03-13T14:42:54;21.20;99.90
16392;DHT22;8305;-33.882;151.134;2023-03-13T14:45:28;21.20;99.90
16392;DHT22;8305;-33.882;151.134;2023-03-13T14:48:03;21.20;99.90
16392;DHT22;8305;-33.882;151.134;2023-03-13T14:50:35;21.20;99.90
16392;DHT22;8305;-33.882;151.134;2023-03-13T14:53:15;21.20;99.90
16392;DHT22;8305;-33.882;151.134;2023-03-13T14:55:47;21.20;99.90
16392;DHT22;8305;-33.882;151.134;2023-03-13T14:58:27;21.10;99.90
16392;DHT22;8305;-33.882;151.134;2023-03-13T15:00:58;21.10;99.90
16392;DHT22;8305;-33.882;151.134;2023-03-13T15:03:44;21.10;99.90
16392;DHT22;8305;-33.882;151.134;2023-03-13T15:06:17;21.10;99.90
16392;DHT22;8305;-33.882;151.134;2023-03-13T15:09:15;21.10;99.90
16392;DHT22;8305;-33.882;151.134;2023-03-13T15:12:00;21.10;99.90
16392;DHT22;8305;-33.882;151.134;2023-03-13T15:14:38;21.10;99.90
16392;DHT22;8305;-33.882;151.134;2023-03-13T15:17:15;21.10;99.90
16392;DHT22;8305;-33.882;151.134;2023-03-13T15:19:52;21.10;99.90
16392;DHT22;8305;-33.882;151.134;2023-03-13T15:22:27;21.10;99.90
16392;DHT22;8305;-33.882;151.134;2023-03-13T15:25:00;21.10;99.90
16392;DHT22;8305;-33.882;151.134;2023-03-13T15:27:31;21.10;99.90
16392;DHT22;8305;-33.882;151.134;2023-03-13T15:30:03;21.10;99.90
16392;DHT22;8305;-33.882;151.134;2023-03-13T15:32:36;21.10;99.90
16392;DHT22;8305;-33.882;151.134;2023-03-13T15:35:23;21.20;99.90
16392;DHT22;8305;-33.882;151.134;2023-03-13T15:37:55;21.20;99.90
16392;DHT22;8305;-33.882;151.134;2023-03-13T15:40:28;21.20;99.90
16392;DHT22;8305;-33.882;151.134;2023-03-13T15:43:00;21.20;99.90
16392;DHT22;8305;-33.882;151.134;2023-03-13T15:45:31;21.20;99.90
16392;DHT22;8305;-33.882;151.134;2023-03-13T15:48:14;21.20;99.90
16392;DHT22;8305;-33.882;151.134;2023-03-13T15:50:48;21.20;99.90
16392;DHT22;8305;-33.882;151.134;2023-03-13T15:53:21;21.20;99.90
16392;DHT22;8305;-33.882;151.134;2023-03-13T15:55:55;21.20;99.90
16392;DHT22;8305;-33.882;151.134;2023-03-13T15:58:27;21.20;99.90
16392;DHT22;8305;-33.882;151.134;2023-03-13T16:01:00;21.20;99.90
16392;DHT22;8305;-33.882;151.134;2023-03-13T16:03:31;21.20;99.90
16392;DHT22;8305;-33.882;151.134;2023-03-13T16:06:04;21.20;99.90
16392;DHT22;8305;-33.882;151.134;2023-03-13T16:08:39;21.20;99.90
16392;DHT22;8305;-33.882;151.134;2023-03-13T16:11:14;21.20;99.90